Time;durP1;ratioP1;P1;durP2;ratioP2;P2;SDS_P1;SDS_P2;PMS_P1;PMS_P2;Temp;Humidity;BMP_temperature;BMP_pressure;BME280_temperature;BME280_humidity;BME280_pressure;Samples;Min_cycle;Max_cycle;Signal;HPM_P1;HPM_P2
2021/11/24 00:00:50;;;;;;;2.65;1.67;;;6.60;99.90;;;;;;5073126;28;20054;-79
2021/11/24 00:03:16;;;;;;;2.63;2.05;;;6.50;99.90;;;;;;5072971;28;20076;-78
2021/11/24 00:05:42;;;;;;;1.75;1.65;;;6.50;99.90;;;;;;5074205;28;20071;-79
2021/11/24 00:08:08;;;;;;;;;;;6.40;99.90;;;;;;5066965;28;20036;-78
2021/11/24 00:10:35;;;;;;;1.88;1.05;;;6.40;99.90;;;;;;5056318;28;19923;-78
2021/11/24 00:13:05;;;;;;;2.03;1.83;;;6.40;99.90;;;;;;5075496;28;20115;-79
2021/11/24 00:15:32;;;;;;;1.67;1.48;;;6.50;99.90;;;;;;5073533;28;20044;-80
2021/11/24 00:17:57;;;;;;;1.35;1.25;;;6.50;99.90;;;;;;5056605;28;20124;-79
2021/11/24 00:20:23;;;;;;;2.00;1.65;;;6.50;99.90;;;;;;5070586;28;20132;-80
2021/11/24 00:22:49;;;;;;;1.80;1.42;;;6.60;99.90;;;;;;5080179;28;20106;-79
2021/11/24 00:25:15;;;;;;;1.40;1.30;;;6.60;99.90;;;;;;5075018;28;20043;-78
2021/11/24 00:27:41;;;;;;;1.55;1.33;;;6.60;99.90;;;;;;5065139;28;20040;-79
2021/11/24 00:30:08;;;;;;;2.47;1.63;;;6.60;99.90;;;;;;5060461;28;20041;-78
2021/11/24 00:32:34;;;;;;;4.85;1.67;;;6.70;99.90;;;;;;5072655;28;20056;-78
2021/11/24 00:35:01;;;;;;;2.13;1.75;;;6.70;99.90;;;;;;5072645;28;20438;-77
2021/11/24 00:37:28;;;;;;;1.40;1.30;;;6.70;99.90;;;;;;5073370;28;20059;-78
2021/11/24 00:39:54;;;;;;;2.67;1.60;;;6.70;99.90;;;;;;5067015;28;20037;-79
2021/11/24 00:42:20;;;;;;;;;;;6.80;99.90;;;;;;5070840;28;20051;-77
2021/11/24 00:44:46;;;;;;;3.10;1.98;;;6.80;99.90;;;;;;5064183;28;19917;-78
2021/11/24 00:47:11;;;;;;;1.02;1.00;;;6.80;99.90;;;;;;5073998;28;20049;-79
2021/11/24 00:49:39;;;;;;;1.08;1.08;;;6.80;99.90;;;;;;5072949;28;20105;-79
2021/11/24 00:52:06;;;;;;;1.25;1.08;;;6.80;99.90;;;;;;5054304;28;20037;-78
2021/11/24 00:54:32;;;;;;;1.48;1.38;;;6.80;99.90;;;;;;5070117;28;20078;-77
2021/11/24 00:56:57;;;;;;;2.08;1.38;;;6.80;99.90;;;;;;5084051;28;20398;-78
2021/11/24 00:59:23;;;;;;;1.48;1.17;;;6.80;99.90;;;;;;5057838;28;20047;-77
2021/11/24 01:01:49;;;;;;;2.35;2.10;;;6.80;99.90;;;;;;5076966;28;20044;-77
2021/11/24 01:04:15;;;;;;;1.63;1.52;;;6.80;99.90;;;;;;5054834;28;20106;-79
2021/11/24 01:06:40;;;;;;;8.98;2.15;;;6.80;99.90;;;;;;5081340;28;20367;-79
2021/11/24 01:09:06;;;;;;;1.55;1.45;;;6.80;99.90;;;;;;5072127;28;20391;-78
2021/11/24 01:11:33;;;;;;;1.40;1.30;;;6.80;99.90;;;;;;5072719;28;20040;-77
2021/11/24 01:13:59;;;;;;;4.53;1.98;;;6.80;99.90;;;;;;5071392;28;20044;-78
2021/11/24 01:16:25;;;;;;;2.90;1.67;;;6.80;99.90;;;;;;5071775;28;20040;-77
2021/11/24 01:18:51;;;;;;;2.38;1.52;;;6.80;99.90;;;;;;5055626;28;20119;-79
2021/11/24 01:21:16;;;;;;;2.67;1.45;;;6.80;99.90;;;;;;5071459;28;20052;-77
2021/11/24 01:23:43;;;;;;;3.65;1.90;;;6.80;99.90;;;;;;5071091;28;20056;-78
2021/11/24 01:26:09;;;;;;;2.63;1.63;;;6.80;99.90;;;;;;5064242;28;20029;-77
2021/11/24 01:28:35;;;;;;;2.00;1.80;;;6.80;99.90;;;;;;5072459;28;20046;-78
2021/11/24 01:31:01;;;;;;;3.38;1.80;;;6.80;99.90;;;;;;5071552;28;20029;-78
2021/11/24 01:33:26;;;;;;;1.38;1.27;;;6.80;99.90;;;;;;5070171;28;20037;-79
2021/11/24 01:35:52;;;;;;;5.82;1.70;;;6.80;99.90;;;;;;5062654;28;20436;-79
2021/11/24 01:38:18;;;;;;;3.05;1.88;;;6.80;99.90;;;;;;5073260;28;20051;-78
2021/11/24 01:40:44;;;;;;;2.08;1.70;;;6.70;99.90;;;;;;5071974;28;20041;-79
2021/11/24 01:43:10;;;;;;;1.33;1.23;;;6.70;99.90;;;;;;5072699;28;20042;-78
2021/11/24 01:45:37;;;;;;;2.17;1.92;;;6.80;99.90;;;;;;5053956;28;20394;-79
2021/11/24 01:48:04;;;;;;;2.22;1.63;;;6.80;99.90;;;;;;5053421;28;20052;-79
2021/11/24 01:50:29;;;;;;;2.13;1.75;;;6.80;99.90;;;;;;5073185;28;20036;-78
2021/11/24 01:52:55;;;;;;;0.90;0.90;;;6.80;99.90;;;;;;5072005;28;20040;-78
2021/11/24 01:55:21;;;;;;;1.77;1.45;;;6.80;99.90;;;;;;5070169;28;20102;-78
2021/11/24 01:57:51;;;;;;;1.52;1.42;;;6.80;99.90;;;;;;5072955;28;20124;-77
2021/11/24 02:00:24;;;;;;;1.30;1.20;;;6.90;99.90;;;;;;5071280;28;20032;-79
2021/11/24 02:02:50;;;;;;;2.53;1.63;;;6.80;99.90;;;;;;5091049;28;20424;-78
2021/11/24 02:05:16;;;;;;;1.58;1.13;;;6.80;99.90;;;;;;5074118;28;20409;-78
2021/11/24 02:07:42;;;;;;;1.00;0.95;;;6.80;99.90;;;;;;5068889;28;20046;-77
2021/11/24 02:10:08;;;;;;;1.10;1.00;;;6.80;99.90;;;;;;5080560;28;20072;-77
2021/11/24 02:12:34;;;;;;;;;;;6.80;99.90;;;;;;5074872;28;20039;-78
2021/11/24 02:15:00;;;;;;;2.00;1.45;;;6.80;99.90;;;;;;5073404;28;19920;-77
2021/11/24 02:17:26;;;;;;;1.35;1.25;;;6.70;99.90;;;;;;5068812;28;20473;-77
2021/11/24 02:19:51;;;;;;;1.90;1.77;;;6.80;99.90;;;;;;5084505;28;20725;-78
2021/11/24 02:22:17;;;;;;;1.75;1.08;;;6.80;99.90;;;;;;5057454;28;20044;-79
2021/11/24 02:24:44;;;;;;;3.10;1.63;;;6.70;99.90;;;;;;5064828;28;20040;-77
2021/11/24 02:27:12;;;;;;;2.30;1.60;;;6.70;99.90;;;;;;5062197;28;20079;-77
2021/11/24 02:29:39;;;;;;;1.05;0.95;;;6.70;99.90;;;;;;5074725;28;20040;-78
2021/11/24 02:32:05;;;;;;;2.03;1.50;;;6.70;99.90;;;;;;5073466;28;20436;-79
2021/11/24 02:34:32;;;;;;;2.30;1.55;;;6.70;99.90;;;;;;5092657;28;20164;-78
2021/11/24 02:36:58;;;;;;;2.25;1.23;;;6.70;99.90;;;;;;5084467;28;20036;-77
2021/11/24 02:39:24;;;;;;;3.42;2.20;;;6.70;99.90;;;;;;5079028;28;20459;-78
2021/11/24 02:41:50;;;;;;;5.70;1.25;;;6.60;99.90;;;;;;5077445;28;20365;-79
2021/11/24 02:44:25;;;;;;;2.67;1.77;;;6.60;99.90;;;;;;5073967;28;20040;-79
2021/11/24 02:47:10;;;;;;;1.85;1.23;;;6.60;99.90;;;;;;5070796;28;20112;-77
2021/11/24 02:49:42;;;;;;;1.27;1.17;;;6.70;99.90;;;;;;5068778;28;20515;-78
2021/11/24 02:52:09;;;;;;;1.40;1.25;;;6.60;99.90;;;;;;5073702;28;20172;-78
2021/11/24 02:54:36;;;;;;;1.45;1.02;;;6.70;99.90;;;;;;5087965;28;20100;-78
2021/11/24 02:57:04;;;;;;;2.10;1.95;;;6.60;99.90;;;;;;5072809;28;20036;-79
2021/11/24 02:59:30;;;;;;;1.40;1.27;;;6.60;99.90;;;;;;5090706;28;20437;-78
2021/11/24 03:01:56;;;;;;;1.70;1.58;;;6.60;99.90;;;;;;5075473;28;20181;-77
2021/11/24 03:04:30;;;;;;;2.95;1.45;;;6.60;99.90;;;;;;5073585;28;20684;-79
2021/11/24 03:07:01;;;;;;;1.40;1.10;;;6.60;99.90;;;;;;5084585;28;20039;-77
2021/11/24 03:09:27;;;;;;;2.15;1.38;;;6.60;99.90;;;;;;5075128;28;20072;-79
2021/11/24 03:11:54;;;;;;;1.67;1.58;;;6.50;99.90;;;;;;5092611;28;20119;-78
2021/11/24 03:14:20;;;;;;;1.58;1.13;;;6.60;99.90;;;;;;5071831;28;20489;-78
2021/11/24 03:16:48;;;;;;;1.58;1.30;;;6.60;99.90;;;;;;5071649;28;20052;-77
2021/11/24 03:19:14;;;;;;;0.82;0.82;;;6.60;99.90;;;;;;5074033;28;20040;-78
2021/11/24 03:21:40;;;;;;;1.70;1.42;;;6.50;99.90;;;;;;5057353;28;20437;-79
2021/11/24 03:24:07;;;;;;;0.90;0.90;;;6.60;99.90;;;;;;5073679;28;20040;-78
2021/11/24 03:26:33;;;;;;;0.88;0.88;;;6.60;99.90;;;;;;5067500;28;20128;-77
2021/11/24 03:28:59;;;;;;;1.10;1.10;;;6.60;99.90;;;;;;5059039;28;20120;-78
2021/11/24 03:31:25;;;;;;;2.08;1.48;;;6.50;99.90;;;;;;5065048;28;20114;-77
2021/11/24 03:33:50;;;;;;;1.10;1.00;;;6.50;99.90;;;;;;5073633;28;20047;-78
2021/11/24 03:36:16;;;;;;;1.35;1.25;;;6.50;99.90;;;;;;5073171;28;20115;-78
2021/11/24 03:38:42;;;;;;;0.88;0.88;;;6.50;99.90;;;;;;5074658;28;20044;-78
2021/11/24 03:41:08;;;;;;;2.00;1.05;;;6.60;99.90;;;;;;5073331;28;20044;-78
2021/11/24 03:43:34;;;;;;;1.33;1.05;;;6.50;99.90;;;;;;5053190;28;20064;-78
2021/11/24 03:45:59;;;;;;;1.42;1.33;;;6.50;99.90;;;;;;5069665;28;20071;-78
2021/11/24 03:48:25;;;;;;;1.40;1.33;;;6.50;99.90;;;;;;5077686;28;20139;-78
2021/11/24 03:50:51;;;;;;;1.42;1.25;;;6.60;99.90;;;;;;5088613;28;20039;-77
2021/11/24 03:53:17;;;;;;;1.33;1.05;;;6.50;99.90;;;;;;5058120;28;20036;-79
2021/11/24 03:55:43;;;;;;;;;;;6.50;99.90;;;;;;5073497;28;20044;-78
2021/11/24 03:58:09;;;;;;;1.75;1.35;;;6.50;99.90;;;;;;5070405;28;19917;-79
2021/11/24 04:00:36;;;;;;;1.77;1.65;;;6.50;99.90;;;;;;5066635;28;20369;-76
2021/11/24 04:03:02;;;;;;;0.77;0.77;;;6.60;99.90;;;;;;5073750;28;20513;-79
2021/11/24 04:05:28;;;;;;;;;;;6.60;99.90;;;;;;5073388;28;20075;-79
2021/11/24 04:07:54;;;;;;;2.03;1.45;;;6.60;99.90;;;;;;5076710;28;19915;-79
2021/11/24 04:10:19;;;;;;;;;;;6.70;99.90;;;;;;5066532;28;20032;-77
2021/11/24 04:12:46;;;;;;;12.07;1.02;;;6.60;99.90;;;;;;5068016;28;19941;-79
2021/11/24 04:15:13;;;;;;;;;;;6.70;99.90;;;;;;5074893;28;20040;-79
2021/11/24 04:17:39;;;;;;;0.80;0.80;;;6.60;99.90;;;;;;5072082;28;19923;-78
2021/11/24 04:20:08;;;;;;;1.30;1.20;;;6.60;99.90;;;;;;5086634;28;20096;-77
2021/11/24 04:22:35;;;;;;;1.65;1.48;;;6.70;99.90;;;;;;5073271;28;20051;-78
2021/11/24 04:25:02;;;;;;;2.75;1.90;;;6.70;99.90;;;;;;5071291;28;20413;-77
2021/11/24 04:27:28;;;;;;;1.38;1.27;;;6.70;99.90;;;;;;5074099;28;20100;-78
2021/11/24 04:29:53;;;;;;;0.85;0.85;;;6.70;99.90;;;;;;5056880;28;20138;-77
2021/11/24 04:32:19;;;;;;;1.02;0.98;;;6.70;99.90;;;;;;5051615;28;20398;-77
2021/11/24 04:34:45;;;;;;;;;;;6.70;99.90;;;;;;5075494;28;20045;-79
2021/11/24 04:37:12;;;;;;;0.80;0.80;;;6.80;99.90;;;;;;5070911;28;19923;-77
2021/11/24 04:39:37;;;;;;;;;;;6.80;99.90;;;;;;5074919;28;20093;-79
2021/11/24 04:42:03;;;;;;;1.45;1.35;;;6.80;99.90;;;;;;5069098;28;19931;-78
2021/11/24 04:44:29;;;;;;;1.58;1.35;;;6.80;99.90;;;;;;5077779;28;20048;-78
2021/11/24 04:47:00;;;;;;;1.38;1.27;;;6.80;99.90;;;;;;5075562;28;20074;-79
2021/11/24 04:49:29;;;;;;;1.33;1.23;;;6.80;99.90;;;;;;5076884;28;20074;-78
2021/11/24 04:51:55;;;;;;;1.05;1.05;;;6.80;99.90;;;;;;5076509;28;20054;-78
2021/11/24 04:54:20;;;;;;;2.05;1.45;;;6.80;99.90;;;;;;5060325;28;20055;-79
2021/11/24 04:56:46;;;;;;;1.20;1.10;;;6.80;99.90;;;;;;5042600;28;20115;-79
2021/11/24 04:59:13;;;;;;;1.30;1.20;;;6.80;99.90;;;;;;5095002;28;20363;-78
2021/11/24 05:01:39;;;;;;;0.98;0.95;;;6.80;99.90;;;;;;5063000;28;20036;-78
2021/11/24 05:04:05;;;;;;;1.13;1.02;;;6.80;99.90;;;;;;5077961;28;20117;-79
2021/11/24 05:06:32;;;;;;;2.83;1.10;;;6.70;99.90;;;;;;5092357;28;20051;-79
2021/11/24 05:08:58;;;;;;;1.23;1.08;;;6.70;99.90;;;;;;5075818;28;20040;-77
2021/11/24 05:11:23;;;;;;;8.48;1.75;;;6.80;99.90;;;;;;5072930;28;20397;-80
2021/11/24 05:13:53;;;;;;;0.95;0.93;;;6.70;99.90;;;;;;5078216;28;20097;-78
2021/11/24 05:16:20;;;;;;;1.85;0.90;;;6.70;99.90;;;;;;5074864;28;20047;-77
2021/11/24 05:18:49;;;;;;;1.35;0.82;;;6.80;99.90;;;;;;5081236;28;20079;-78
2021/11/24 05:21:32;;;;;;;0.85;0.85;;;6.70;99.90;;;;;;5069842;28;20393;-78
2021/11/24 05:23:59;;;;;;;1.67;1.55;;;6.70;99.90;;;;;;5075913;28;20109;-78
2021/11/24 05:26:27;;;;;;;1.42;1.10;;;6.80;99.90;;;;;;5075193;28;20044;-79
2021/11/24 05:28:53;;;;;;;0.80;0.80;;;6.80;99.90;;;;;;5057517;28;20056;-77
2021/11/24 05:31:19;;;;;;;1.38;1.02;;;6.80;99.90;;;;;;5075698;28;20051;-78
2021/11/24 05:33:46;;;;;;;;;;;6.80;99.90;;;;;;5067429;28;20043;-78
2021/11/24 05:36:12;;;;;;;;;;;6.80;99.90;;;;;;5086155;28;20297;-79
2021/11/24 05:38:38;;;;;;;1.30;1.20;;;6.80;99.90;;;;;;5079840;28;20006;-78
2021/11/24 05:41:04;;;;;;;1.20;1.17;;;6.80;99.90;;;;;;5075489;28;20044;-78
2021/11/24 05:43:30;;;;;;;2.38;1.48;;;6.80;99.90;;;;;;5077289;28;20086;-78
2021/11/24 05:48:23;;;;;;;1.25;1.00;;;6.80;99.90;;;;;;5091850;28;20539;-78
2021/11/24 05:50:50;;;;;;;1.00;1.00;;;6.80;99.90;;;;;;5078420;28;20070;-78
2021/11/24 05:53:18;;;;;;;1.88;1.15;;;6.80;99.90;;;;;;5070026;28;20037;-79
2021/11/24 05:55:46;;;;;;;1.65;1.17;;;6.80;99.90;;;;;;5072615;28;20123;-79
2021/11/24 05:58:13;;;;;;;1.17;1.10;;;6.80;99.90;;;;;;5082001;28;20051;-79
2021/11/24 06:00:40;;;;;;;1.20;1.10;;;6.80;99.90;;;;;;5068555;28;20051;-80
2021/11/24 06:03:06;;;;;;;1.92;1.73;;;6.80;99.90;;;;;;5064557;28;20066;-79
2021/11/24 06:05:32;;;;;;;1.77;1.40;;;6.80;99.90;;;;;;5071691;28;20059;-79
2021/11/24 06:07:58;;;;;;;;;;;6.80;99.90;;;;;;5075964;28;20047;-77
2021/11/24 06:10:25;;;;;;;2.08;1.50;;;6.80;99.90;;;;;;5092727;28;19915;-79
2021/11/24 06:12:50;;;;;;;;;;;6.80;99.90;;;;;;5072073;28;20033;-79
2021/11/24 06:15:17;;;;;;;2.22;1.58;;;6.80;99.90;;;;;;5073198;28;19916;-79
2021/11/24 06:17:44;;;;;;;1.48;1.08;;;6.80;99.90;;;;;;5065201;28;20040;-79
2021/11/24 06:20:11;;;;;;;1.25;1.17;;;6.80;99.90;;;;;;5074555;28;20063;-79
2021/11/24 06:22:37;;;;;;;5.15;1.08;;;6.80;99.90;;;;;;5089898;28;20430;-78
2021/11/24 06:25:04;;;;;;;1.85;1.00;;;6.80;99.90;;;;;;5061580;28;20490;-79
2021/11/24 06:27:30;;;;;;;1.50;1.13;;;6.80;99.90;;;;;;5073441;28;20044;-79
2021/11/24 06:29:56;;;;;;;0.90;0.90;;;6.80;99.90;;;;;;5074864;28;20066;-79
2021/11/24 06:32:25;;;;;;;1.52;1.27;;;6.90;99.90;;;;;;5074160;28;20118;-79
2021/11/24 06:34:51;;;;;;;;;;;7.00;99.90;;;;;;5046023;28;20495;-79
2021/11/24 06:37:17;;;;;;;0.90;0.90;;;7.00;99.90;;;;;;5049030;28;19916;-79
2021/11/24 06:39:43;;;;;;;1.00;1.00;;;6.90;99.90;;;;;;5083248;28;20100;-80
2021/11/24 06:42:09;;;;;;;2.85;1.35;;;6.90;99.90;;;;;;5082018;28;20032;-79
2021/11/24 06:44:34;;;;;;;;;;;6.90;99.90;;;;;;5075819;28;20396;-78
2021/11/24 06:47:02;;;;;;;2.13;1.08;;;6.90;99.90;;;;;;5056027;28;19924;-79
2021/11/24 06:49:28;;;;;;;1.35;1.10;;;6.90;99.90;;;;;;5054764;28;20060;-80
2021/11/24 06:51:53;;;;;;;1.95;1.40;;;6.90;99.90;;;;;;5058096;28;20090;-81
2021/11/24 06:54:19;;;;;;;1.75;1.10;;;6.80;99.90;;;;;;5053984;28;20052;-80
2021/11/24 06:56:47;;;;;;;1.88;1.60;;;6.90;99.90;;;;;;5090534;28;20032;-80
2021/11/24 06:59:13;;;;;;;3.67;1.52;;;6.80;99.90;;;;;;5078908;28;20112;-79
2021/11/24 07:01:39;;;;;;;;;;;6.90;99.90;;;;;;5085252;28;20059;-80
2021/11/24 07:04:05;;;;;;;0.85;0.85;;;6.80;99.90;;;;;;5078791;28;19950;-79
2021/11/24 07:06:31;;;;;;;1.05;0.98;;;6.80;99.90;;;;;;5088753;28;20460;-80
2021/11/24 07:08:56;;;;;;;2.45;1.58;;;7.00;99.90;;;;;;5062897;28;20045;-79
2021/11/24 07:11:27;;;;;;;1.35;1.25;;;6.80;99.90;;;;;;5074831;28;20568;-80
2021/11/24 07:13:57;;;;;;;1.35;1.25;;;6.90;99.90;;;;;;5077213;28;20047;-80
2021/11/24 07:16:22;;;;;;;1.58;1.40;;;6.80;99.90;;;;;;5095475;28;20055;-80
2021/11/24 07:18:48;;;;;;;1.25;1.15;;;6.80;99.90;;;;;;5066362;28;20040;-78
2021/11/24 07:21:14;;;;;;;1.35;1.25;;;6.80;99.90;;;;;;5066833;28;20028;-80
2021/11/24 07:23:40;;;;;;;1.65;1.45;;;6.80;99.90;;;;;;5078375;28;20040;-79
2021/11/24 07:26:05;;;;;;;0.70;0.70;;;6.80;99.90;;;;;;5070312;28;20032;-80
2021/11/24 07:28:31;;;;;;;0.80;0.80;;;6.90;99.90;;;;;;5072858;28;20492;-80
2021/11/24 07:30:57;;;;;;;0.90;0.90;;;6.90;99.90;;;;;;5040696;28;20090;-81
2021/11/24 07:33:23;;;;;;;0.93;0.93;;;7.10;99.90;;;;;;5035573;28;20036;-80
2021/11/24 07:35:49;;;;;;;1.40;1.02;;;6.90;99.90;;;;;;5051539;28;20049;-80
2021/11/24 07:38:15;;;;;;;0.90;0.90;;;6.90;99.90;;;;;;5069278;28;20054;-80
2021/11/24 07:40:40;;;;;;;2.45;1.25;;;7.00;99.90;;;;;;5071441;28;20382;-78
2021/11/24 07:43:07;;;;;;;1.27;1.08;;;7.00;99.90;;;;;;5036911;28;20105;-79
2021/11/24 07:45:33;;;;;;;1.08;0.98;;;7.00;99.90;;;;;;5071858;28;20066;-81
2021/11/24 07:48:00;;;;;;;0.95;0.90;;;7.00;99.90;;;;;;5072284;28;20051;-82
2021/11/24 07:50:25;;;;;;;1.42;1.08;;;6.90;99.90;;;;;;5074965;28;20063;-79
2021/11/24 07:52:51;;;;;;;0.80;0.80;;;7.00;99.90;;;;;;5056450;28;20033;-80
2021/11/24 07:55:17;;;;;;;1.20;1.10;;;7.00;99.90;;;;;;5042182;28;20044;-81
2021/11/24 07:57:44;;;;;;;0.90;0.90;;;7.00;99.90;;;;;;5087922;28;20080;-81
2021/11/24 08:00:12;;;;;;;2.65;1.25;;;7.00;99.90;;;;;;5053880;28;20070;-82
2021/11/24 08:02:46;;;;;;;1.35;1.15;;;7.00;99.90;;;;;;5072542;28;20048;-79
2021/11/24 08:05:12;;;;;;;1.08;1.00;;;7.00;99.90;;;;;;5051286;28;20135;-79
2021/11/24 08:07:40;;;;;;;1.02;1.02;;;7.00;99.90;;;;;;5065154;28;20155;-80
2021/11/24 08:10:09;;;;;;;1.20;1.10;;;7.10;99.90;;;;;;5055483;28;20051;-80
2021/11/24 08:12:36;;;;;;;1.25;1.10;;;7.10;99.90;;;;;;5071492;28;20045;-80
2021/11/24 08:15:02;;;;;;;0.90;0.90;;;7.10;99.90;;;;;;5076227;28;20040;-80
2021/11/24 08:17:28;;;;;;;1.33;1.23;;;7.10;99.90;;;;;;5042144;28;20051;-79
2021/11/24 08:19:55;;;;;;;1.23;1.10;;;7.10;99.90;;;;;;5074850;28;20044;-80
2021/11/24 08:22:23;;;;;;;0.93;0.93;;;7.10;99.90;;;;;;5076623;28;20052;-82
2021/11/24 08:24:49;;;;;;;0.90;0.90;;;7.30;99.90;;;;;;5076231;28;20051;-81
2021/11/24 08:27:14;;;;;;;0.75;0.75;;;7.20;99.90;;;;;;5041868;28;20045;-79
2021/11/24 08:29:40;;;;;;;0.85;0.85;;;7.10;99.90;;;;;;5075218;28;20473;-78
2021/11/24 08:32:07;;;;;;;1.05;0.95;;;7.10;99.90;;;;;;5057805;28;20413;-79
2021/11/24 08:34:33;;;;;;;1.10;1.00;;;7.10;99.90;;;;;;5058411;28;20075;-79
2021/11/24 08:36:59;;;;;;;0.90;0.90;;;7.10;99.90;;;;;;5074967;28;20036;-79
2021/11/24 08:39:25;;;;;;;0.90;0.90;;;7.10;99.90;;;;;;5061137;28;20044;-79
2021/11/24 08:41:51;;;;;;;;;;;7.10;99.90;;;;;;5079616;28;20036;-80
2021/11/24 08:44:17;;;;;;;1.15;1.05;;;7.10;99.90;;;;;;5067169;28;19931;-80
2021/11/24 08:46:43;;;;;;;1.75;1.48;;;7.10;99.90;;;;;;5044796;28;20101;-81
2021/11/24 08:49:09;;;;;;;0.80;0.80;;;7.20;99.90;;;;;;5066079;28;20126;-80
2021/11/24 08:51:37;;;;;;;0.80;0.80;;;7.10;99.90;;;;;;5067159;28;20526;-82
2021/11/24 08:54:06;;;;;;;1.15;1.05;;;7.10;99.90;;;;;;5075883;28;20043;-81
2021/11/24 08:56:34;;;;;;;1.42;1.30;;;7.20;99.90;;;;;;5051966;28;20064;-79
2021/11/24 08:59:04;;;;;;;0.80;0.80;;;7.20;99.90;;;;;;5074383;28;20086;-79
2021/11/24 09:01:30;;;;;;;1.35;1.25;;;7.20;99.90;;;;;;5057892;28;20436;-77
2021/11/24 09:03:56;;;;;;;1.05;1.00;;;7.20;99.90;;;;;;5023261;28;20705;-79
2021/11/24 09:06:22;;;;;;;5.32;1.20;;;7.30;99.90;;;;;;5034031;28;20044;-80
2021/11/24 09:08:48;;;;;;;1.20;1.13;;;7.30;99.90;;;;;;5055080;28;20166;-78
2021/11/24 09:11:13;;;;;;;1.15;0.98;;;7.30;99.90;;;;;;5044360;28;20136;-78
2021/11/24 09:13:39;;;;;;;0.93;0.93;;;7.30;99.90;;;;;;5035658;28;20476;-78
2021/11/24 09:16:05;;;;;;;1.65;1.40;;;7.30;99.90;;;;;;5062676;28;20051;-79
2021/11/24 09:18:31;;;;;;;0.90;0.90;;;7.30;99.90;;;;;;5034995;28;20044;-77
2021/11/24 09:20:56;;;;;;;1.05;1.05;;;7.40;99.90;;;;;;5061295;28;20059;-78
2021/11/24 09:23:24;;;;;;;1.98;1.63;;;7.40;99.90;;;;;;5055353;28;20067;-78
2021/11/24 09:28:33;;;;;;;1.95;1.77;;;7.40;99.90;;;;;;5057086;28;20043;-78
2021/11/24 09:30:59;;;;;;;2.20;1.35;;;7.40;99.90;;;;;;5071507;28;20050;-80
2021/11/24 09:33:25;;;;;;;;;;;7.50;99.90;;;;;;5038791;28;20043;-80
2021/11/24 09:35:51;;;;;;;1.40;1.30;;;7.40;99.90;;;;;;5037119;28;19920;-81
2021/11/24 09:38:18;;;;;;;3.88;1.20;;;7.50;99.90;;;;;;5034639;28;20166;-80
2021/11/24 09:40:43;;;;;;;2.35;1.23;;;7.50;99.90;;;;;;5035290;28;20544;-80
2021/11/24 09:43:11;;;;;;;1.20;1.10;;;7.50;99.90;;;;;;5026171;28;20148;-81
2021/11/24 09:45:39;;;;;;;1.10;1.00;;;8.30;99.90;;;;;;5038381;28;20149;-81
2021/11/24 09:48:05;;;;;;;1.20;1.08;;;7.40;99.90;;;;;;5023392;28;20474;-82
2021/11/24 09:50:36;;;;;;;1.40;1.30;;;7.60;99.90;;;;;;5034424;28;20037;-79
2021/11/24 09:53:02;;;;;;;8.43;2.40;;;7.60;99.90;;;;;;5036395;28;20043;-81
2021/11/24 09:55:33;;;;;;;1.35;1.25;;;7.60;99.90;;;;;;5051480;28;20119;-81
2021/11/24 09:58:00;;;;;;;0.98;0.95;;;7.60;99.90;;;;;;5037063;28;20052;-79
2021/11/24 10:00:25;;;;;;;4.75;1.10;;;7.60;99.90;;;;;;5053474;28;20119;-80
2021/11/24 10:02:58;;;;;;;12.45;1.77;;;7.60;99.90;;;;;;5063890;28;20131;-78
2021/11/24 10:05:27;;;;;;;1.10;1.10;;;7.60;99.90;;;;;;5070598;28;20115;-80
2021/11/24 10:07:53;;;;;;;0.95;0.90;;;7.60;99.90;;;;;;5050387;28;20048;-78
2021/11/24 10:10:19;;;;;;;0.80;0.80;;;7.70;99.90;;;;;;5073239;28;20043;-79
2021/11/24 10:12:45;;;;;;;1.65;1.48;;;7.70;99.90;;;;;;5071608;28;20470;-79
2021/11/24 10:15:30;;;;;;;1.70;1.17;;;7.70;99.90;;;;;;5073381;28;20047;-78
2021/11/24 10:18:14;;;;;;;1.60;1.50;;;7.70;99.90;;;;;;5072521;28;20052;-78
2021/11/24 10:20:47;;;;;;;2.80;1.52;;;7.80;99.90;;;;;;5077024;28;20040;-79
2021/11/24 10:23:35;;;;;;;5.50;1.42;;;7.40;99.90;;;;;;5081234;28;20389;-79
2021/11/24 10:26:21;;;;;;;2.42;1.92;;;7.80;99.90;;;;;;5060007;28;20055;-78
2021/11/24 10:28:55;;;;;;;1.33;1.23;;;7.80;99.90;;;;;;5060958;28;20756;-77
2021/11/24 10:31:33;;;;;;;1.20;1.10;;;7.80;99.90;;;;;;5050323;28;20078;-78
2021/11/24 10:34:01;;;;;;;0.77;0.70;;;7.90;99.90;;;;;;5070602;28;20059;-79
2021/11/24 10:36:28;;;;;;;4.00;1.10;;;7.90;99.90;;;;;;5042839;28;20110;-80
2021/11/24 10:38:57;;;;;;;1.30;1.00;;;7.90;99.90;;;;;;5056009;28;20202;-80
2021/11/24 10:41:36;;;;;;;1.42;1.23;;;7.90;99.90;;;;;;5068758;28;20478;-81
2021/11/24 10:44:03;;;;;;;1.40;1.30;;;7.90;99.90;;;;;;5069007;28;20051;-80
2021/11/24 10:46:30;;;;;;;2.03;1.17;;;7.90;99.90;;;;;;5070988;28;20355;-82
2021/11/24 10:49:03;;;;;;;1.08;1.00;;;7.90;99.90;;;;;;5050667;28;20061;-80
2021/11/24 10:51:37;;;;;;;1.30;1.20;;;7.90;99.90;;;;;;5071098;28;20040;-81
2021/11/24 10:54:23;;;;;;;1.02;1.00;;;8.00;99.90;;;;;;5053597;28;20055;-78
2021/11/24 10:57:04;;;;;;;2.72;1.23;;;8.10;99.90;;;;;;5069798;28;20390;-78
2021/11/24 10:59:32;;;;;;;2.10;1.20;;;8.00;99.90;;;;;;5070320;28;20072;-79
2021/11/24 11:02:19;;;;;;;1.70;1.20;;;8.10;99.90;;;;;;5068795;28;20528;-81
2021/11/24 11:04:55;;;;;;;1.13;1.02;;;8.00;99.90;;;;;;5079387;28;20047;-83
2021/11/24 11:07:24;;;;;;;1.38;1.27;;;8.00;99.90;;;;;;5073546;28;20048;-79
2021/11/24 11:10:02;;;;;;;1.58;1.45;;;8.00;99.90;;;;;;5074496;28;20417;-82
2021/11/24 11:12:30;;;;;;;1.35;1.17;;;8.00;99.90;;;;;;5057301;28;20044;-81
2021/11/24 11:15:30;;;;;;;1.40;1.23;;;8.00;99.90;;;;;;5053199;28;20044;-80
2021/11/24 11:18:18;;;;;;;1.20;1.02;;;8.00;99.90;;;;;;5056932;28;20053;-78
2021/11/24 11:20:58;;;;;;;1.50;1.40;;;8.00;99.90;;;;;;5059481;28;20123;-80
2021/11/24 11:23:29;;;;;;;3.15;1.90;;;7.90;99.90;;;;;;5053402;28;20043;-80
2021/11/24 11:26:02;;;;;;;0.90;0.90;;;7.90;99.90;;;;;;5045319;28;20106;-79
2021/11/24 11:28:57;;;;;;;1.50;1.05;;;8.00;99.90;;;;;;5069009;28;20097;-79
2021/11/24 11:31:28;;;;;;;1.38;1.27;;;8.00;99.90;;;;;;5038907;28;20052;-79
2021/11/24 11:33:56;;;;;;;1.65;1.55;;;8.00;99.90;;;;;;5076359;28;20477;-80
2021/11/24 11:36:23;;;;;;;1.40;1.30;;;8.00;99.90;;;;;;5051771;28;20332;-79
2021/11/24 11:38:52;;;;;;;1.25;1.15;;;8.00;99.90;;;;;;5048196;28;20078;-80
2021/11/24 11:41:25;;;;;;;1.35;1.17;;;8.00;99.90;;;;;;5063299;28;20086;-80
2021/11/24 11:43:52;;;;;;;1.77;1.23;;;8.00;99.90;;;;;;5052648;28;20389;-79
2021/11/24 11:46:24;;;;;;;2.05;1.48;;;8.00;99.90;;;;;;5048934;28;20041;-78
2021/11/24 11:48:53;;;;;;;1.48;1.33;;;8.00;99.90;;;;;;5074368;28;20033;-78
2021/11/24 11:51:33;;;;;;;1.15;0.93;;;8.00;99.90;;;;;;5051174;28;20048;-79
2021/11/24 11:54:00;;;;;;;3.83;1.42;;;8.00;99.90;;;;;;5053922;28;20060;-77
2021/11/24 11:56:30;;;;;;;8.77;1.52;;;8.00;99.90;;;;;;5082554;28;20043;-80
2021/11/24 11:59:09;;;;;;;1.08;1.02;;;8.00;99.90;;;;;;5069095;28;20385;-78
2021/11/24 12:02:01;;;;;;;1.52;1.42;;;8.00;99.90;;;;;;5080720;28;20123;-79
2021/11/24 12:04:46;;;;;;;2.17;1.40;;;8.00;99.90;;;;;;5034504;28;20068;-78
2021/11/24 12:07:19;;;;;;;1.95;1.48;;;8.00;99.90;;;;;;5072005;28;20052;-79
2021/11/24 12:09:57;;;;;;;1.30;1.20;;;8.00;99.90;;;;;;5090867;28;20048;-79
2021/11/24 12:12:35;;;;;;;2.92;1.52;;;8.00;99.90;;;;;;5052936;28;20045;-79
2021/11/24 12:15:16;;;;;;;1.20;1.10;;;8.00;99.90;;;;;;5053985;28;20053;-80
2021/11/24 12:17:55;;;;;;;1.10;1.08;;;8.00;99.90;;;;;;5068397;28;20079;-80
2021/11/24 12:20:23;;;;;;;6.00;2.03;;;8.00;99.90;;;;;;5060950;28;20071;-78
2021/11/24 12:22:55;;;;;;;3.38;1.63;;;8.00;99.90;;;;;;5056562;28;20045;-79
2021/11/24 12:25:24;;;;;;;1.63;1.00;;;8.00;99.90;;;;;;5071722;28;20423;-79
2021/11/24 12:27:50;;;;;;;2.10;1.83;;;8.00;99.90;;;;;;5071550;28;20040;-80
2021/11/24 12:30:36;;;;;;;1.20;1.02;;;8.00;99.90;;;;;;5072032;28;20113;-80
2021/11/24 12:33:08;;;;;;;1.00;0.90;;;8.00;99.90;;;;;;5057458;28;20492;-80
2021/11/24 12:35:56;;;;;;;1.85;1.55;;;8.00;99.90;;;;;;5076487;28;20084;-80
2021/11/24 12:38:34;;;;;;;1.52;1.42;;;8.00;99.90;;;;;;5074155;28;20058;-79
2021/11/24 12:41:12;;;;;;;1.33;1.10;;;8.10;99.90;;;;;;5082360;28;20119;-78
2021/11/24 12:43:41;;;;;;;2.42;1.80;;;8.00;99.90;;;;;;5069976;28;20364;-77
2021/11/24 12:46:16;;;;;;;1.40;1.20;;;8.00;99.90;;;;;;5085139;28;20048;-77
2021/11/24 12:48:57;;;;;;;1.98;1.77;;;8.00;99.90;;;;;;5071594;28;20406;-79
2021/11/24 12:51:47;;;;;;;6.15;1.30;;;8.10;99.90;;;;;;5051830;28;20048;-79
2021/11/24 12:54:26;;;;;;;4.22;1.40;;;8.10;99.90;;;;;;5059124;28;20702;-77
2021/11/24 12:57:00;;;;;;;1.08;1.00;;;8.10;99.90;;;;;;5072099;28;20055;-79
2021/11/24 12:59:29;;;;;;;0.90;0.90;;;8.10;99.90;;;;;;5058152;28;20055;-77
2021/11/24 13:02:01;;;;;;;2.25;1.90;;;8.10;99.90;;;;;;5070776;28;20041;-78
2021/11/24 13:04:42;;;;;;;1.55;1.42;;;8.00;99.90;;;;;;5067111;28;20048;-78
2021/11/24 13:07:20;;;;;;;1.65;1.55;;;8.00;99.90;;;;;;5060462;28;20425;-77
2021/11/24 13:09:48;;;;;;;0.85;0.82;;;8.00;99.90;;;;;;5055822;28;20511;-79
2021/11/24 13:12:16;;;;;;;5.50;1.45;;;8.00;99.90;;;;;;5046941;28;20093;-79
2021/11/24 13:14:47;;;;;;;1.08;1.00;;;8.00;99.90;;;;;;5058141;28;20051;-78